createdAt,value
2019-05-21T00:02:07.708Z,13.64
2019-05-21T00:04:34.714Z,13.61
2019-05-21T00:07:02.231Z,13.62
2019-05-21T00:09:30.284Z,13.62
2019-05-21T00:11:57.319Z,13.61
2019-05-21T00:14:24.440Z,13.61
2019-05-21T00:16:51.836Z,13.59
2019-05-21T00:19:19.669Z,13.55
2019-05-21T00:21:46.675Z,13.52
2019-05-21T00:24:15.035Z,13.50
2019-05-21T00:26:42.223Z,13.50
2019-05-21T00:29:46.083Z,13.49
2019-05-21T00:32:49.906Z,13.50
2019-05-21T00:35:53.972Z,13.48
2019-05-21T00:38:58.041Z,13.51
2019-05-21T00:42:03.836Z,13.48
2019-05-21T00:44:34.505Z,13.44
2019-05-21T00:47:02.506Z,13.42
2019-05-21T00:49:29.556Z,13.39
2019-05-21T00:52:06.880Z,13.39
2019-05-21T00:54:25.480Z,13.36
2019-05-21T00:56:52.603Z,13.34
2019-05-21T00:59:19.893Z,13.35
2019-05-21T01:01:46.958Z,13.31
2019-05-21T01:04:14.013Z,13.30
2019-05-21T01:06:41.131Z,13.27
2019-05-21T01:09:08.146Z,13.27
2019-05-21T01:11:35.267Z,13.27
2019-05-21T01:14:02.428Z,13.26
2019-05-21T01:16:29.427Z,13.20
2019-05-21T01:18:56.516Z,13.24
2019-05-21T01:21:23.490Z,13.24
2019-05-21T01:23:50.489Z,13.25
2019-05-21T01:26:18.576Z,13.27
2019-05-21T01:28:45.618Z,13.25
2019-05-21T01:31:12.664Z,13.25
2019-05-21T01:33:39.727Z,13.26
2019-05-21T01:36:06.687Z,13.27
2019-05-21T01:38:33.680Z,13.27
2019-05-21T01:41:00.743Z,13.27
2019-05-21T01:43:28.055Z,13.26
2019-05-21T01:45:55.087Z,13.23
2019-05-21T01:48:22.092Z,13.24
2019-05-21T01:50:49.354Z,13.25
2019-05-21T01:53:16.437Z,13.24
2019-05-21T01:55:43.546Z,13.30
2019-05-21T01:58:11.799Z,13.27
2019-05-21T02:00:38.861Z,13.34
2019-05-21T02:03:05.847Z,13.32
2019-05-21T02:05:33.657Z,13.33
2019-05-21T02:08:00.789Z,13.29
2019-05-21T02:10:27.827Z,13.29
2019-05-21T02:12:54.813Z,13.24
2019-05-21T02:15:21.799Z,13.25
2019-05-21T02:17:48.846Z,13.24
2019-05-21T02:20:15.864Z,13.18
2019-05-21T02:22:42.953Z,13.18
2019-05-21T02:25:10.021Z,13.13
2019-05-21T02:27:37.046Z,13.11
2019-05-21T02:30:06.345Z,13.09
2019-05-21T02:32:34.140Z,13.12
2019-05-21T02:35:02.042Z,13.09
2019-05-21T02:37:29.122Z,13.03
2019-05-21T02:39:56.281Z,13.04
2019-05-21T02:42:23.294Z,13.05
2019-05-21T02:44:54.176Z,13.03
2019-05-21T02:47:20.551Z,13.02
2019-05-21T02:49:47.524Z,12.99
2019-05-21T02:52:14.525Z,12.94
2019-05-21T02:54:42.098Z,12.97
2019-05-21T02:57:09.225Z,12.94
2019-05-21T02:59:36.952Z,12.91
2019-05-21T03:02:13.392Z,12.89
2019-05-21T03:04:40.454Z,12.88
2019-05-21T03:07:19.635Z,12.89
2019-05-21T03:09:49.624Z,12.87
2019-05-21T03:12:16.806Z,12.86
2019-05-21T03:14:44.540Z,12.85
2019-05-21T03:17:11.544Z,12.85
2019-05-21T03:19:38.564Z,12.84
2019-05-21T03:22:05.626Z,12.84
2019-05-21T03:24:32.705Z,12.87
2019-05-21T03:26:59.703Z,12.83
2019-05-21T03:29:26.767Z,12.84
2019-05-21T03:31:53.773Z,12.81
2019-05-21T03:34:20.810Z,12.78
2019-05-21T03:36:47.921Z,12.81
2019-05-21T03:39:19.122Z,12.78
2019-05-21T03:41:43.855Z,12.81
2019-05-21T03:44:10.900Z,12.79
2019-05-21T03:46:37.988Z,12.76
2019-05-21T03:49:05.028Z,12.73
2019-05-21T03:51:32.249Z,12.72
2019-05-21T03:53:59.278Z,12.70
2019-05-21T03:56:26.272Z,12.66
2019-05-21T03:58:53.379Z,12.67
2019-05-21T04:01:20.460Z,12.65
2019-05-21T04:03:47.477Z,12.64
2019-05-21T04:06:15.296Z,12.63
2019-05-21T04:08:42.359Z,12.69
2019-05-21T04:11:09.426Z,12.67
2019-05-21T04:13:36.504Z,12.69
2019-05-21T04:16:13.188Z,12.70
2019-05-21T04:19:02.013Z,12.65
2019-05-21T04:21:29.015Z,12.65
2019-05-21T04:23:56.047Z,12.66
2019-05-21T04:26:23.161Z,12.71
2019-05-21T04:28:50.202Z,12.69
2019-05-21T04:31:17.199Z,12.70
2019-05-21T04:33:44.505Z,12.73
2019-05-21T04:36:11.572Z,12.72
2019-05-21T04:38:38.633Z,12.69
2019-05-21T04:41:05.748Z,12.70
2019-05-21T04:43:32.804Z,12.70
2019-05-21T04:45:59.910Z,12.66
2019-05-21T04:48:27.102Z,12.65
2019-05-21T04:50:54.169Z,12.66
2019-05-21T04:53:21.131Z,12.65
2019-05-21T04:55:48.344Z,12.61
2019-05-21T04:58:15.528Z,12.60
2019-05-21T05:00:42.751Z,12.56
2019-05-21T05:03:11.269Z,12.53
2019-05-21T05:05:38.314Z,12.51
2019-05-21T05:08:05.381Z,12.50
2019-05-21T05:10:32.602Z,12.45
2019-05-21T05:12:59.699Z,12.42
2019-05-21T05:15:26.750Z,12.38
2019-05-21T05:17:53.870Z,12.38
2019-05-21T05:20:20.881Z,12.36
2019-05-21T05:22:47.932Z,12.31
2019-05-21T05:25:14.996Z,12.37
2019-05-21T05:27:42.040Z,12.34
2019-05-21T05:30:10.037Z,12.38
2019-05-21T05:32:37.066Z,12.40
2019-05-21T05:35:04.313Z,12.36
2019-05-21T05:37:43.332Z,12.37
2019-05-21T05:40:00.281Z,12.32
2019-05-21T05:42:27.296Z,12.34
2019-05-21T05:44:54.367Z,12.37
2019-05-21T05:47:21.523Z,12.38
2019-05-21T05:49:51.370Z,12.29
2019-05-21T05:52:18.446Z,12.35
2019-05-21T05:54:45.480Z,12.35
2019-05-21T05:57:12.641Z,12.32
2019-05-21T05:59:39.813Z,12.38
2019-05-21T06:02:06.803Z,12.32
2019-05-21T06:04:33.787Z,12.30
2019-05-21T06:07:00.809Z,12.36
2019-05-21T06:09:27.879Z,12.38
2019-05-21T06:11:54.977Z,12.35
2019-05-21T06:14:22.010Z,12.35
2019-05-21T06:16:49.119Z,12.39
2019-05-21T06:19:16.172Z,12.42
2019-05-21T06:21:43.223Z,12.42
2019-05-21T06:24:13.460Z,12.42
2019-05-21T06:26:39.495Z,12.46
2019-05-21T06:29:06.520Z,12.51
2019-05-21T06:31:34.408Z,12.65
2019-05-21T06:34:01.628Z,12.64
2019-05-21T06:36:31.581Z,12.60
2019-05-21T06:38:59.616Z,12.56
2019-05-21T06:41:26.611Z,12.51
2019-05-21T06:43:53.789Z,12.55
2019-05-21T06:46:20.899Z,12.55
2019-05-21T06:48:48.027Z,12.52
2019-05-21T06:51:15.057Z,12.52
2019-05-21T06:53:42.175Z,12.53
2019-05-21T06:56:09.157Z,12.55
2019-05-21T06:58:37.953Z,12.48
2019-05-21T07:01:05.003Z,12.51
2019-05-21T07:03:32.015Z,12.55
2019-05-21T07:05:59.630Z,12.55
2019-05-21T07:08:34.451Z,12.56
2019-05-21T07:10:55.642Z,12.57
2019-05-21T07:13:22.654Z,12.59
2019-05-21T07:15:49.673Z,12.63
2019-05-21T07:18:16.687Z,12.68
2019-05-21T07:20:43.798Z,12.75
2019-05-21T07:23:10.876Z,12.79
2019-05-21T07:25:39.958Z,12.83
2019-05-21T07:28:06.961Z,12.83
2019-05-21T07:30:34.218Z,12.83
2019-05-21T07:33:01.473Z,12.89
2019-05-21T07:35:28.767Z,12.91
2019-05-21T07:37:55.855Z,12.96
2019-05-21T07:40:24.187Z,12.96
2019-05-21T07:42:51.238Z,12.93
2019-05-21T07:45:19.221Z,12.87
2019-05-21T07:47:46.259Z,12.82
2019-05-21T07:50:13.428Z,12.93
2019-05-21T07:52:40.713Z,13.02
2019-05-21T07:55:07.920Z,13.03
2019-05-21T07:57:44.411Z,13.06
2019-05-21T08:00:35.154Z,13.01
2019-05-21T08:03:02.412Z,13.07
2019-05-21T08:05:29.651Z,13.09
2019-05-21T08:07:57.410Z,13.11
2019-05-21T08:10:24.728Z,13.13
2019-05-21T08:12:52.040Z,13.13
2019-05-21T08:15:19.355Z,13.06
2019-05-21T08:17:46.825Z,13.09
2019-05-21T08:20:14.524Z,13.11
2019-05-21T08:22:41.772Z,13.11
2019-05-21T08:25:09.198Z,13.12
2019-05-21T08:27:36.388Z,13.16
2019-05-21T08:30:05.080Z,13.14
2019-05-21T08:32:32.667Z,13.14
2019-05-21T08:34:59.915Z,13.16
2019-05-21T08:37:27.129Z,13.25
2019-05-21T08:39:54.394Z,13.39
2019-05-21T08:42:21.681Z,13.32
2019-05-21T08:44:48.937Z,13.38
2019-05-21T08:47:16.413Z,13.53
2019-05-21T08:49:44.360Z,13.66
2019-05-21T08:52:12.020Z,13.72
2019-05-21T08:54:51.495Z,13.61
2019-05-21T08:57:19.071Z,13.63
2019-05-21T08:59:46.615Z,13.66
2019-05-21T09:02:13.940Z,13.54
2019-05-21T09:04:46.281Z,13.62
2019-05-21T09:07:11.020Z,13.74
2019-05-21T09:09:49.952Z,13.76
2019-05-21T09:12:09.230Z,13.73
2019-05-21T09:14:36.939Z,13.66
2019-05-21T09:17:04.314Z,13.61
2019-05-21T09:19:36.627Z,13.73
2019-05-21T09:22:04.131Z,13.71
2019-05-21T09:24:31.755Z,13.73
2019-05-21T09:26:59.677Z,13.66
2019-05-21T09:29:27.009Z,13.80
2019-05-21T09:31:55.312Z,13.85
2019-05-21T09:34:22.538Z,13.86
2019-05-21T09:36:49.889Z,14.26
2019-05-21T09:39:17.177Z,14.21
2019-05-21T09:41:44.440Z,13.96
2019-05-21T09:44:11.779Z,13.87
2019-05-21T09:46:39.111Z,13.93
2019-05-21T09:49:06.595Z,14.05
2019-05-21T09:51:34.196Z,13.99
2019-05-21T09:54:02.574Z,14.11
2019-05-21T09:56:33.207Z,14.29
2019-05-21T09:59:09.712Z,14.20
2019-05-21T10:01:47.469Z,13.99
2019-05-21T10:04:12.079Z,13.76
2019-05-21T10:06:39.415Z,13.73
2019-05-21T10:09:11.443Z,13.76
2019-05-21T10:11:38.673Z,13.80
2019-05-21T10:14:06.120Z,13.83
2019-05-21T10:16:33.563Z,13.72
2019-05-21T10:19:00.841Z,13.65
2019-05-21T10:21:29.090Z,13.58
2019-05-21T10:23:56.348Z,13.61
2019-05-21T10:26:23.786Z,13.70
2019-05-21T10:28:54.087Z,13.95
2019-05-21T10:31:21.395Z,14.05
2019-05-21T10:33:48.696Z,14.03
2019-05-21T10:36:15.986Z,14.11
2019-05-21T10:38:43.274Z,14.36
2019-05-21T10:41:10.801Z,14.58
2019-05-21T10:43:38.202Z,14.53
2019-05-21T10:46:05.969Z,14.45
2019-05-21T10:48:33.452Z,14.87
2019-05-21T10:51:00.715Z,14.61
2019-05-21T10:53:28.349Z,14.43
2019-05-21T10:55:55.844Z,14.31
2019-05-21T10:58:23.152Z,14.36
2019-05-21T11:00:52.707Z,14.23
2019-05-21T11:03:39.629Z,14.13
2019-05-21T11:06:10.525Z,14.14
2019-05-21T11:08:42.314Z,14.14
2019-05-21T11:11:09.668Z,14.05
2019-05-21T11:13:37.254Z,14.16
2019-05-21T11:16:08.670Z,14.12
2019-05-21T11:18:36.301Z,14.23
2019-05-21T11:21:03.741Z,14.27
2019-05-21T11:23:32.079Z,14.44
2019-05-21T11:25:59.300Z,14.59
2019-05-21T11:28:28.109Z,14.86
2019-05-21T11:30:55.525Z,14.78
2019-05-21T11:33:23.064Z,14.75
2019-05-21T11:35:50.406Z,14.66
2019-05-21T11:38:17.770Z,14.80
2019-05-21T11:40:50.571Z,14.57
2019-05-21T11:43:14.393Z,14.49
2019-05-21T11:45:41.881Z,14.54
2019-05-21T11:48:09.714Z,14.32
2019-05-21T11:50:37.291Z,14.25
2019-05-21T11:53:04.627Z,14.18
2019-05-21T11:55:32.696Z,13.95
2019-05-21T11:57:59.988Z,13.83
2019-05-21T12:00:28.886Z,13.79
2019-05-21T12:02:56.414Z,13.80
2019-05-21T12:05:24.699Z,13.78
2019-05-21T12:07:53.147Z,13.76
2019-05-21T12:10:22.263Z,13.74
2019-05-21T12:12:49.905Z,13.75
2019-05-21T12:15:18.303Z,13.71
2019-05-21T12:17:46.087Z,13.71
2019-05-21T12:20:15.500Z,13.80
2019-05-21T12:22:43.741Z,13.91
2019-05-21T12:25:14.292Z,13.79
2019-05-21T12:27:45.448Z,13.93
2019-05-21T12:30:14.842Z,13.90
2019-05-21T12:32:47.170Z,13.95
2019-05-21T12:35:18.866Z,13.92
2019-05-21T12:37:46.963Z,13.89
2019-05-21T12:40:16.172Z,13.95
2019-05-21T12:42:43.530Z,13.92
2019-05-21T12:45:12.461Z,13.81
2019-05-21T12:47:39.904Z,13.78
2019-05-21T12:50:08.764Z,13.64
2019-05-21T12:52:36.126Z,13.78
2019-05-21T12:55:04.062Z,13.79
2019-05-21T12:57:31.482Z,13.78
2019-05-21T13:00:02.254Z,13.78
2019-05-21T13:02:31.180Z,13.74
2019-05-21T13:04:58.454Z,13.78
2019-05-21T13:07:26.902Z,13.73
2019-05-21T13:09:54.242Z,13.79
2019-05-21T13:12:21.560Z,13.72
2019-05-21T13:14:49.987Z,13.75
2019-05-21T13:17:19.613Z,13.66
2019-05-21T13:19:46.943Z,13.64
2019-05-21T13:22:14.244Z,13.64
2019-05-21T13:24:42.573Z,13.58
2019-05-21T13:27:10.741Z,13.57
2019-05-21T13:29:38.121Z,13.64
2019-05-21T13:32:08.576Z,13.71
2019-05-21T13:34:35.777Z,13.76
2019-05-21T13:37:03.319Z,13.73
2019-05-21T13:39:30.629Z,13.71
2019-05-21T13:41:58.054Z,13.71
2019-05-21T13:44:25.406Z,13.92
2019-05-21T13:46:52.629Z,13.95
2019-05-21T13:49:19.991Z,14.20
2019-05-21T13:51:47.807Z,14.16
2019-05-21T13:54:15.062Z,14.25
2019-05-21T13:56:43.485Z,14.06
2019-05-21T13:59:12.643Z,13.95
2019-05-21T14:01:54.665Z,13.91
2019-05-21T14:04:25.967Z,13.92
2019-05-21T14:06:54.945Z,13.95
2019-05-21T14:09:22.785Z,13.90
2019-05-21T14:11:52.995Z,13.81
2019-05-21T14:14:23.180Z,13.97
2019-05-21T14:16:58.098Z,14.16
2019-05-21T14:19:28.968Z,14.07
2019-05-21T14:22:00.429Z,13.89
2019-05-21T14:24:44.221Z,13.83
2019-05-21T14:27:12.695Z,13.80
2019-05-21T14:29:40.103Z,13.86
2019-05-21T14:32:07.314Z,13.74
2019-05-21T14:35:01.161Z,13.60
2019-05-21T14:37:24.807Z,13.65
2019-05-21T14:39:53.446Z,13.70
2019-05-21T14:42:24.721Z,13.59
2019-05-21T14:45:00.342Z,13.46
2019-05-21T14:47:31.914Z,13.43
2019-05-21T14:50:23.694Z,13.46
2019-05-21T14:52:52.517Z,13.39
2019-05-21T14:55:24.813Z,13.09
2019-05-21T14:58:03.539Z,13.07
2019-05-21T15:00:38.618Z,13.04
2019-05-21T15:03:29.385Z,13.14
2019-05-21T15:05:58.685Z,12.99
2019-05-21T15:08:28.365Z,12.90
2019-05-21T15:10:56.404Z,12.94
2019-05-21T15:13:24.733Z,12.89
2019-05-21T15:15:52.924Z,12.91
2019-05-21T15:18:24.024Z,12.86
2019-05-21T15:21:01.100Z,12.86
2019-05-21T15:23:40.696Z,12.85
2019-05-21T15:26:10.446Z,13.04
2019-05-21T15:28:52.436Z,13.03
2019-05-21T15:35:10.054Z,12.90
2019-05-21T15:37:37.334Z,12.85
2019-05-21T15:40:05.094Z,12.89
2019-05-21T15:42:33.916Z,12.96
2019-05-21T15:45:01.659Z,12.98
2019-05-21T15:47:29.521Z,12.99
2019-05-21T15:49:56.734Z,13.00
2019-05-21T15:52:27.004Z,13.00
2019-05-21T15:54:58.717Z,12.96
2019-05-21T15:57:26.527Z,12.93
2019-05-21T15:59:55.482Z,12.95
2019-05-21T16:02:54.003Z,12.96
2019-05-21T16:05:22.881Z,13.02
2019-05-21T16:07:50.105Z,13.08
2019-05-21T16:10:21.711Z,13.07
2019-05-21T16:12:57.090Z,13.04
2019-05-21T16:15:25.948Z,12.99
2019-05-21T16:17:55.269Z,12.97
2019-05-21T16:20:22.465Z,13.03
2019-05-21T16:22:49.949Z,13.00
2019-05-21T16:25:17.181Z,12.98
2019-05-21T16:27:48.289Z,13.04
2019-05-21T16:30:15.697Z,13.01
2019-05-21T16:32:42.961Z,13.08
2019-05-21T16:35:10.913Z,13.08
2019-05-21T16:37:39.843Z,13.12
2019-05-21T16:40:10.045Z,13.11
2019-05-21T16:42:37.376Z,13.05
2019-05-21T16:45:08.213Z,13.06
2019-05-21T16:48:34.390Z,13.08
2019-05-21T16:51:01.688Z,13.15
2019-05-21T16:53:29.352Z,13.15
2019-05-21T16:55:57.530Z,13.25
2019-05-21T16:58:24.849Z,13.09
2019-05-21T17:00:52.503Z,13.13
2019-05-21T17:03:22.416Z,13.01
2019-05-21T17:05:51.050Z,13.03
2019-05-21T17:08:18.211Z,13.10
2019-05-21T17:10:45.302Z,13.05
2019-05-21T17:13:15.009Z,13.19
2019-05-21T17:15:44.145Z,13.05
2019-05-21T17:18:14.871Z,13.01
2019-05-21T17:20:48.651Z,12.99
2019-05-21T17:23:18.395Z,12.96
2019-05-21T17:25:50.064Z,12.92
2019-05-21T17:28:20.443Z,12.91
2019-05-21T17:30:51.827Z,12.91
2019-05-21T17:33:22.006Z,12.91
2019-05-21T17:35:52.295Z,12.87
2019-05-21T17:38:24.485Z,12.91
2019-05-21T17:40:53.961Z,12.90
2019-05-21T17:43:21.248Z,12.91
2019-05-21T17:45:48.338Z,12.96
2019-05-21T17:48:15.499Z,12.92
2019-05-21T17:50:42.996Z,12.91
2019-05-21T17:53:13.259Z,12.92
2019-05-21T17:55:40.502Z,12.91
2019-05-21T17:58:09.063Z,12.95
2019-05-21T18:00:54.989Z,12.96
2019-05-21T18:03:39.564Z,12.90
2019-05-21T18:06:08.154Z,12.89
2019-05-21T18:08:41.174Z,12.89
2019-05-21T18:11:08.742Z,12.88
2019-05-21T18:13:41.728Z,12.97
2019-05-21T18:16:13.897Z,12.93
2019-05-21T18:18:45.566Z,12.85
2019-05-21T18:21:13.711Z,12.85
2019-05-21T18:23:45.449Z,12.86
2019-05-21T18:26:23.727Z,12.86
2019-05-21T18:28:54.051Z,12.89
2019-05-21T18:31:23.659Z,12.86
2019-05-21T18:33:56.692Z,12.84
2019-05-21T18:36:31.563Z,12.84
2019-05-21T18:38:58.837Z,12.79
2019-05-21T18:41:30.730Z,12.75
2019-05-21T18:43:59.070Z,12.75
2019-05-21T18:46:27.299Z,12.75
2019-05-21T18:48:54.549Z,12.80
2019-05-21T18:51:22.558Z,12.76
2019-05-21T18:53:49.879Z,12.74
2019-05-21T18:56:17.251Z,12.76
2019-05-21T18:58:44.788Z,12.76
2019-05-21T19:01:14.868Z,12.77
2019-05-21T19:03:42.224Z,12.76
2019-05-21T19:06:11.760Z,12.81
2019-05-21T19:08:42.070Z,12.76
2019-05-21T19:11:32.883Z,12.79
2019-05-21T19:14:08.976Z,12.86
2019-05-21T19:16:40.321Z,12.80
2019-05-21T19:19:09.290Z,12.75
2019-05-21T19:21:39.615Z,12.77
2019-05-21T19:24:07.298Z,12.84
2019-05-21T19:26:40.148Z,12.82
2019-05-21T19:29:11.582Z,12.79
2019-05-21T19:31:38.665Z,12.76
2019-05-21T19:34:05.933Z,12.77
2019-05-21T19:36:33.072Z,12.77
2019-05-21T19:39:00.846Z,12.75
2019-05-21T19:41:33.087Z,12.79
2019-05-21T19:44:02.603Z,12.67
2019-05-21T19:46:51.195Z,12.61
2019-05-21T19:49:33.105Z,12.60
2019-05-21T19:52:05.937Z,12.54
2019-05-21T19:54:50.171Z,12.54
2019-05-21T19:57:24.519Z,12.49
2019-05-21T19:59:59.519Z,12.51
2019-05-21T20:02:40.657Z,12.59
2019-05-21T20:05:14.541Z,12.64
2019-05-21T20:07:43.360Z,12.62
2019-05-21T20:10:13.601Z,12.71
2019-05-21T20:12:41.718Z,12.73
2019-05-21T20:15:11.368Z,12.62
2019-05-21T20:17:40.294Z,12.62
2019-05-21T20:20:09.559Z,12.74
2019-05-21T20:22:37.658Z,12.67
2019-05-21T20:25:05.379Z,12.63
2019-05-21T20:27:32.598Z,12.67
2019-05-21T20:30:12.161Z,12.71
2019-05-21T20:32:35.955Z,12.77
2019-05-21T20:35:06.520Z,12.74
2019-05-21T20:37:38.563Z,12.68
2019-05-21T20:40:08.634Z,12.89
2019-05-21T20:42:37.350Z,12.84
2019-05-21T20:45:06.944Z,12.68
2019-05-21T20:47:34.506Z,12.60
2019-05-21T20:50:05.333Z,12.54
2019-05-21T20:52:35.345Z,12.50
2019-05-21T20:55:02.940Z,12.47
2019-05-21T20:57:31.662Z,12.46
2019-05-21T20:59:58.826Z,12.48
2019-05-21T21:02:27.567Z,12.46
2019-05-21T21:08:06.195Z,12.45
2019-05-21T21:10:33.257Z,12.45
2019-05-21T21:13:01.024Z,12.44
2019-05-21T21:15:28.293Z,12.47
2019-05-21T21:17:55.451Z,12.49
2019-05-21T21:20:22.614Z,12.51
2019-05-21T21:22:49.843Z,12.52
2019-05-21T21:25:21.018Z,12.52
2019-05-21T21:27:48.433Z,12.55
2019-05-21T21:30:15.690Z,12.59
2019-05-21T21:32:43.630Z,12.58
2019-05-21T21:35:11.746Z,12.61
2019-05-21T21:37:38.848Z,12.73
2019-05-21T21:40:08.902Z,12.64
2019-05-21T21:42:36.162Z,12.77
2019-05-21T21:45:03.617Z,12.90
2019-05-21T21:47:31.193Z,12.97
2019-05-21T21:49:58.856Z,13.21
2019-05-21T21:52:29.895Z,13.32
2019-05-21T21:54:59.203Z,13.20
2019-05-21T21:57:26.524Z,12.98
2019-05-21T21:59:55.571Z,12.95
2019-05-21T22:02:30.205Z,12.86
2019-05-21T22:04:58.103Z,12.81
2019-05-21T22:07:26.927Z,12.72
2019-05-21T22:09:54.961Z,12.66
2019-05-21T22:12:24.487Z,12.80
2019-05-21T22:14:58.205Z,12.83
2019-05-21T22:17:25.420Z,12.82
2019-05-21T22:19:52.737Z,13.02
2019-05-21T22:22:20.231Z,13.36
2019-05-21T22:24:48.775Z,13.33
2019-05-21T22:27:18.597Z,13.41
2019-05-21T22:29:46.887Z,13.29
2019-05-21T22:32:16.658Z,13.25
2019-05-21T22:34:42.968Z,13.29
2019-05-21T22:37:14.543Z,13.19
2019-05-21T22:39:43.731Z,13.23
2019-05-21T22:42:13.438Z,13.09
2019-05-21T22:44:43.413Z,13.11
2019-05-21T22:47:11.657Z,13.10
2019-05-21T22:49:38.801Z,13.41
2019-05-21T22:52:06.270Z,13.47
2019-05-21T22:54:33.423Z,13.46
2019-05-21T22:57:00.674Z,13.54
2019-05-21T22:59:27.806Z,13.29
2019-05-21T23:01:57.447Z,13.25
2019-05-21T23:04:24.681Z,13.55
2019-05-21T23:06:54.101Z,13.39
2019-05-21T23:09:21.552Z,13.34
2019-05-21T23:11:48.843Z,13.42
2019-05-21T23:14:15.973Z,13.61
2019-05-21T23:16:49.897Z,13.63
2019-05-21T23:19:24.240Z,13.54
2019-05-21T23:21:57.546Z,13.45
2019-05-21T23:24:25.364Z,13.10
2019-05-21T23:26:53.088Z,13.04
2019-05-21T23:29:20.558Z,13.16
2019-05-21T23:31:48.850Z,13.26
2019-05-21T23:34:17.929Z,13.33
2019-05-21T23:36:47.033Z,13.27
2019-05-21T23:39:20.509Z,13.08
2019-05-21T23:41:48.213Z,12.95
2019-05-21T23:44:16.233Z,12.82
2019-05-21T23:46:43.882Z,12.88
2019-05-21T23:49:12.124Z,12.85
2019-05-21T23:51:39.423Z,12.75
2019-05-21T23:54:06.889Z,12.75
2019-05-21T23:56:34.043Z,12.68
2019-05-21T23:59:01.300Z,12.72
